sensor_id;sensor_type;location;lat;lon;timestamp;temperature;humidity
29413;DHT22;16389;50.126;8.450;2022-08-16T00:01:45;18.90;99.90
29413;DHT22;16389;50.126;8.450;2022-08-16T00:04:11;19.00;99.90
29413;DHT22;16389;50.126;8.450;2022-08-16T00:06:37;19.00;99.90
29413;DHT22;16389;50.126;8.450;2022-08-16T00:09:03;19.00;99.90
29413;DHT22;16389;50.126;8.450;2022-08-16T00:11:29;18.90;99.90
29413;DHT22;16389;50.126;8.450;2022-08-16T00:13:55;18.90;99.90
29413;DHT22;16389;50.126;8.450;2022-08-16T00:16:26;18.90;99.90
29413;DHT22;16389;50.126;8.450;2022-08-16T00:18:52;18.80;99.90
29413;DHT22;16389;50.126;8.450;2022-08-16T00:21:18;18.80;99.90
29413;DHT22;16389;50.126;8.450;2022-08-16T00:23:43;18.80;99.90
29413;DHT22;16389;50.126;8.450;2022-08-16T00:26:09;18.80;99.90
29413;DHT22;16389;50.126;8.450;2022-08-16T00:28:35;18.70;99.90
29413;DHT22;16389;50.126;8.450;2022-08-16T00:31:00;18.70;99.90
29413;DHT22;16389;50.126;8.450;2022-08-16T00:33:26;18.70;99.90
29413;DHT22;16389;50.126;8.450;2022-08-16T00:35:52;18.60;99.90
29413;DHT22;16389;50.126;8.450;2022-08-16T00:38:18;18.50;99.90
29413;DHT22;16389;50.126;8.450;2022-08-16T00:40:48;18.50;99.90
29413;DHT22;16389;50.126;8.450;2022-08-16T00:43:17;18.40;99.90
29413;DHT22;16389;50.126;8.450;2022-08-16T00:48:27;18.40;99.90
29413;DHT22;16389;50.126;8.450;2022-08-16T00:50:53;18.40;99.90
29413;DHT22;16389;50.126;8.450;2022-08-16T00:53:19;18.40;99.90
29413;DHT22;16389;50.126;8.450;2022-08-16T00:55:54;18.30;99.90
29413;DHT22;16389;50.126;8.450;2022-08-16T00:58:23;18.40;99.90
29413;DHT22;16389;50.126;8.450;2022-08-16T01:00:50;18.20;99.90
29413;DHT22;16389;50.126;8.450;2022-08-16T01:03:19;18.10;99.90
29413;DHT22;16389;50.126;8.450;2022-08-16T01:05:46;18.10;99.90
29413;DHT22;16389;50.126;8.450;2022-08-16T01:08:13;18.10;99.90
29413;DHT22;16389;50.126;8.450;2022-08-16T01:10:41;18.10;99.90
29413;DHT22;16389;50.126;8.450;2022-08-16T01:13:11;18.00;99.90
29413;DHT22;16389;50.126;8.450;2022-08-16T01:15:42;18.00;99.90
29413;DHT22;16389;50.126;8.450;2022-08-16T01:18:12;18.10;99.90
29413;DHT22;16389;50.126;8.450;2022-08-16T01:20:43;18.00;99.90
29413;DHT22;16389;50.126;8.450;2022-08-16T01:23:15;18.10;99.90
29413;DHT22;16389;50.126;8.450;2022-08-16T01:25:45;18.10;99.90
29413;DHT22;16389;50.126;8.450;2022-08-16T01:28:14;18.10;99.90
29413;DHT22;16389;50.126;8.450;2022-08-16T01:30:44;18.00;99.90
29413;DHT22;16389;50.126;8.450;2022-08-16T01:33:10;18.00;99.90
29413;DHT22;16389;50.126;8.450;2022-08-16T01:35:47;18.00;99.90
29413;DHT22;16389;50.126;8.450;2022-08-16T01:41:05;18.00;99.90
29413;DHT22;16389;50.126;8.450;2022-08-16T01:43:32;18.00;99.90
29413;DHT22;16389;50.126;8.450;2022-08-16T01:46:01;17.90;99.90
29413;DHT22;16389;50.126;8.450;2022-08-16T01:48:29;17.90;99.90
29413;DHT22;16389;50.126;8.450;2022-08-16T01:50:57;17.80;99.90
29413;DHT22;16389;50.126;8.450;2022-08-16T01:53:23;17.80;99.90
29413;DHT22;16389;50.126;8.450;2022-08-16T01:55:50;17.70;99.90
29413;DHT22;16389;50.126;8.450;2022-08-16T01:58:16;17.70;99.90
29413;DHT22;16389;50.126;8.450;2022-08-16T02:00:43;17.70;99.90
29413;DHT22;16389;50.126;8.450;2022-08-16T02:03:09;17.70;99.90
29413;DHT22;16389;50.126;8.450;2022-08-16T02:05:35;17.70;99.90
29413;DHT22;16389;50.126;8.450;2022-08-16T02:08:02;17.60;99.90
29413;DHT22;16389;50.126;8.450;2022-08-16T02:10:30;17.50;99.90
29413;DHT22;16389;50.126;8.450;2022-08-16T02:12:56;17.50;99.90
29413;DHT22;16389;50.126;8.450;2022-08-16T02:15:25;17.50;99.90
29413;DHT22;16389;50.126;8.450;2022-08-16T02:17:56;17.50;99.90
29413;DHT22;16389;50.126;8.450;2022-08-16T02:20:22;17.50;99.90
29413;DHT22;16389;50.126;8.450;2022-08-16T02:22:49;17.40;99.90
29413;DHT22;16389;50.126;8.450;2022-08-16T02:25:15;17.40;99.90
29413;DHT22;16389;50.126;8.450;2022-08-16T02:27:43;17.30;99.90
29413;DHT22;16389;50.126;8.450;2022-08-16T02:30:16;17.30;99.90
29413;DHT22;16389;50.126;8.450;2022-08-16T02:32:42;17.30;99.90
29413;DHT22;16389;50.126;8.450;2022-08-16T02:35:09;17.30;99.90
29413;DHT22;16389;50.126;8.450;2022-08-16T02:37:34;17.20;99.90
29413;DHT22;16389;50.126;8.450;2022-08-16T02:40:00;17.20;99.90
29413;DHT22;16389;50.126;8.450;2022-08-16T02:42:26;17.10;99.90
29413;DHT22;16389;50.126;8.450;2022-08-16T02:44:51;17.10;99.90
29413;DHT22;16389;50.126;8.450;2022-08-16T02:47:17;17.20;99.90
29413;DHT22;16389;50.126;8.450;2022-08-16T02:49:43;17.10;99.90
29413;DHT22;16389;50.126;8.450;2022-08-16T02:52:09;17.20;99.90
29413;DHT22;16389;50.126;8.450;2022-08-16T02:54:35;17.20;99.90
29413;DHT22;16389;50.126;8.450;2022-08-16T02:57:02;17.20;99.90
29413;DHT22;16389;50.126;8.450;2022-08-16T02:59:28;17.10;99.90
29413;DHT22;16389;50.126;8.450;2022-08-16T03:01:54;17.10;99.90
29413;DHT22;16389;50.126;8.450;2022-08-16T03:04:21;17.10;99.90
29413;DHT22;16389;50.126;8.450;2022-08-16T03:06:46;17.20;99.90
29413;DHT22;16389;50.126;8.450;2022-08-16T03:09:12;17.20;99.90
29413;DHT22;16389;50.126;8.450;2022-08-16T03:11:38;17.20;99.90
29413;DHT22;16389;50.126;8.450;2022-08-16T03:14:04;17.20;99.90
29413;DHT22;16389;50.126;8.450;2022-08-16T03:16:30;17.10;99.90
29413;DHT22;16389;50.126;8.450;2022-08-16T03:18:56;17.10;99.90
29413;DHT22;16389;50.126;8.450;2022-08-16T03:21:22;17.10;99.90
29413;DHT22;16389;50.126;8.450;2022-08-16T03:23:48;17.10;99.90
29413;DHT22;16389;50.126;8.450;2022-08-16T03:26:15;17.00;99.90
29413;DHT22;16389;50.126;8.450;2022-08-16T03:28:41;17.00;99.90
29413;DHT22;16389;50.126;8.450;2022-08-16T03:31:07;17.00;99.90
29413;DHT22;16389;50.126;8.450;2022-08-16T03:33:33;16.90;99.90
29413;DHT22;16389;50.126;8.450;2022-08-16T03:36:00;16.90;99.90
29413;DHT22;16389;50.126;8.450;2022-08-16T03:38:27;17.00;99.90
29413;DHT22;16389;50.126;8.450;2022-08-16T03:40:54;17.00;99.90
29413;DHT22;16389;50.126;8.450;2022-08-16T03:43:21;17.00;99.90
29413;DHT22;16389;50.126;8.450;2022-08-16T03:45:49;16.90;99.90
29413;DHT22;16389;50.126;8.450;2022-08-16T03:48:16;16.80;99.90
29413;DHT22;16389;50.126;8.450;2022-08-16T03:50:41;16.70;99.90
29413;DHT22;16389;50.126;8.450;2022-08-16T03:53:07;16.60;99.90
29413;DHT22;16389;50.126;8.450;2022-08-16T03:55:32;16.60;99.90
29413;DHT22;16389;50.126;8.450;2022-08-16T03:57:58;16.60;99.90
29413;DHT22;16389;50.126;8.450;2022-08-16T04:00:27;16.60;99.90
29413;DHT22;16389;50.126;8.450;2022-08-16T04:02:54;16.60;99.90
29413;DHT22;16389;50.126;8.450;2022-08-16T04:05:20;16.60;99.90
29413;DHT22;16389;50.126;8.450;2022-08-16T04:07:46;16.60;99.90
29413;DHT22;16389;50.126;8.450;2022-08-16T04:10:13;16.60;99.90
29413;DHT22;16389;50.126;8.450;2022-08-16T04:12:39;16.60;99.90
29413;DHT22;16389;50.126;8.450;2022-08-16T04:15:08;16.60;99.90
29413;DHT22;16389;50.126;8.450;2022-08-16T04:17:34;16.60;99.90
29413;DHT22;16389;50.126;8.450;2022-08-16T04:19:59;16.60;99.90
29413;DHT22;16389;50.126;8.450;2022-08-16T04:22:25;16.60;99.90
29413;DHT22;16389;50.126;8.450;2022-08-16T04:24:51;16.60;99.90
29413;DHT22;16389;50.126;8.450;2022-08-16T04:27:17;16.50;99.90
29413;DHT22;16389;50.126;8.450;2022-08-16T04:29:43;16.60;99.90
29413;DHT22;16389;50.126;8.450;2022-08-16T04:32:08;16.50;99.90
29413;DHT22;16389;50.126;8.450;2022-08-16T04:34:35;16.50;99.90
29413;DHT22;16389;50.126;8.450;2022-08-16T04:37:03;16.50;99.90
29413;DHT22;16389;50.126;8.450;2022-08-16T04:39:31;16.50;99.90
29413;DHT22;16389;50.126;8.450;2022-08-16T04:41:57;16.50;99.90
29413;DHT22;16389;50.126;8.450;2022-08-16T04:44:23;16.60;99.90
29413;DHT22;16389;50.126;8.450;2022-08-16T04:46:49;16.60;99.90
29413;DHT22;16389;50.126;8.450;2022-08-16T04:49:15;16.60;99.90
29413;DHT22;16389;50.126;8.450;2022-08-16T04:51:42;16.60;99.90
29413;DHT22;16389;50.126;8.450;2022-08-16T04:54:08;16.70;99.90
29413;DHT22;16389;50.126;8.450;2022-08-16T04:56:34;16.70;99.90
29413;DHT22;16389;50.126;8.450;2022-08-16T04:59:00;16.70;99.90
29413;DHT22;16389;50.126;8.450;2022-08-16T05:01:26;16.70;99.90
29413;DHT22;16389;50.126;8.450;2022-08-16T05:03:52;16.80;99.90
29413;DHT22;16389;50.126;8.450;2022-08-16T05:06:18;16.80;99.90
29413;DHT22;16389;50.126;8.450;2022-08-16T05:08:44;16.90;99.90
29413;DHT22;16389;50.126;8.450;2022-08-16T05:11:11;16.90;99.90
29413;DHT22;16389;50.126;8.450;2022-08-16T05:13:40;17.00;99.90
29413;DHT22;16389;50.126;8.450;2022-08-16T05:16:15;17.00;99.90
29413;DHT22;16389;50.126;8.450;2022-08-16T05:18:41;17.00;99.90
29413;DHT22;16389;50.126;8.450;2022-08-16T05:21:07;17.00;99.90
29413;DHT22;16389;50.126;8.450;2022-08-16T05:23:33;17.10;99.90
29413;DHT22;16389;50.126;8.450;2022-08-16T05:25:58;17.20;99.90
29413;DHT22;16389;50.126;8.450;2022-08-16T05:28:25;17.30;99.90
29413;DHT22;16389;50.126;8.450;2022-08-16T05:30:51;17.30;99.90
29413;DHT22;16389;50.126;8.450;2022-08-16T05:33:17;17.40;99.90
29413;DHT22;16389;50.126;8.450;2022-08-16T05:35:43;17.50;99.90
29413;DHT22;16389;50.126;8.450;2022-08-16T05:38:09;17.50;99.90
29413;DHT22;16389;50.126;8.450;2022-08-16T05:40:35;17.60;99.90
29413;DHT22;16389;50.126;8.450;2022-08-16T05:43:01;17.70;99.90
29413;DHT22;16389;50.126;8.450;2022-08-16T05:45:26;17.80;99.90
29413;DHT22;16389;50.126;8.450;2022-08-16T05:47:52;17.90;99.90
29413;DHT22;16389;50.126;8.450;2022-08-16T05:50:18;17.90;99.90
29413;DHT22;16389;50.126;8.450;2022-08-16T05:52:43;17.90;99.90
29413;DHT22;16389;50.126;8.450;2022-08-16T05:55:09;18.00;99.90
29413;DHT22;16389;50.126;8.450;2022-08-16T05:57:35;18.10;99.90
29413;DHT22;16389;50.126;8.450;2022-08-16T06:00:01;18.10;99.90
29413;DHT22;16389;50.126;8.450;2022-08-16T06:02:27;18.20;99.90
29413;DHT22;16389;50.126;8.450;2022-08-16T06:04:56;18.30;99.90
29413;DHT22;16389;50.126;8.450;2022-08-16T06:07:21;18.30;99.90
29413;DHT22;16389;50.126;8.450;2022-08-16T06:09:47;18.40;99.90
29413;DHT22;16389;50.126;8.450;2022-08-16T06:12:14;18.50;99.90
29413;DHT22;16389;50.126;8.450;2022-08-16T06:14:39;18.50;99.90
29413;DHT22;16389;50.126;8.450;2022-08-16T06:17:05;18.60;99.90
29413;DHT22;16389;50.126;8.450;2022-08-16T06:19:31;18.70;99.90
29413;DHT22;16389;50.126;8.450;2022-08-16T06:21:57;18.80;99.90
29413;DHT22;16389;50.126;8.450;2022-08-16T06:24:23;18.90;99.90
29413;DHT22;16389;50.126;8.450;2022-08-16T06:26:48;18.90;99.90
29413;DHT22;16389;50.126;8.450;2022-08-16T06:29:14;19.00;99.90
29413;DHT22;16389;50.126;8.450;2022-08-16T06:31:39;19.10;99.90
29413;DHT22;16389;50.126;8.450;2022-08-16T06:34:05;19.10;99.90
29413;DHT22;16389;50.126;8.450;2022-08-16T06:36:31;19.20;99.90
29413;DHT22;16389;50.126;8.450;2022-08-16T06:38:57;19.30;99.90
29413;DHT22;16389;50.126;8.450;2022-08-16T06:41:24;19.50;99.90
29413;DHT22;16389;50.126;8.450;2022-08-16T06:43:50;19.60;99.90
29413;DHT22;16389;50.126;8.450;2022-08-16T06:46:28;19.70;99.90
29413;DHT22;16389;50.126;8.450;2022-08-16T06:48:54;19.80;99.90
29413;DHT22;16389;50.126;8.450;2022-08-16T06:51:20;19.90;99.90
29413;DHT22;16389;50.126;8.450;2022-08-16T06:53:45;20.00;99.90
29413;DHT22;16389;50.126;8.450;2022-08-16T06:56:11;20.10;99.90
29413;DHT22;16389;50.126;8.450;2022-08-16T06:58:37;20.20;99.90
29413;DHT22;16389;50.126;8.450;2022-08-16T07:01:03;20.30;99.90
29413;DHT22;16389;50.126;8.450;2022-08-16T07:03:29;20.40;99.90
29413;DHT22;16389;50.126;8.450;2022-08-16T07:05:56;20.50;99.90
29413;DHT22;16389;50.126;8.450;2022-08-16T07:08:23;20.60;99.90
29413;DHT22;16389;50.126;8.450;2022-08-16T07:10:49;20.80;99.90
29413;DHT22;16389;50.126;8.450;2022-08-16T07:13:15;20.90;99.90
29413;DHT22;16389;50.126;8.450;2022-08-16T07:15:41;20.90;99.90
29413;DHT22;16389;50.126;8.450;2022-08-16T07:18:08;21.00;99.90
29413;DHT22;16389;50.126;8.450;2022-08-16T07:20:36;21.10;99.90
29413;DHT22;16389;50.126;8.450;2022-08-16T07:23:03;21.20;99.90
29413;DHT22;16389;50.126;8.450;2022-08-16T07:25:29;21.30;99.90
29413;DHT22;16389;50.126;8.450;2022-08-16T07:27:54;21.50;99.90
29413;DHT22;16389;50.126;8.450;2022-08-16T07:30:20;21.60;99.90
29413;DHT22;16389;50.126;8.450;2022-08-16T07:32:46;21.70;99.90
29413;DHT22;16389;50.126;8.450;2022-08-16T07:35:11;21.90;99.90
29413;DHT22;16389;50.126;8.450;2022-08-16T07:37:37;22.10;99.90
29413;DHT22;16389;50.126;8.450;2022-08-16T07:40:03;22.30;99.90
29413;DHT22;16389;50.126;8.450;2022-08-16T07:42:29;22.50;99.90
29413;DHT22;16389;50.126;8.450;2022-08-16T07:44:55;22.60;99.90
29413;DHT22;16389;50.126;8.450;2022-08-16T07:47:22;22.80;99.90
29413;DHT22;16389;50.126;8.450;2022-08-16T07:49:47;22.80;99.90
29413;DHT22;16389;50.126;8.450;2022-08-16T07:52:13;23.00;99.90
29413;DHT22;16389;50.126;8.450;2022-08-16T07:54:39;23.10;99.90
29413;DHT22;16389;50.126;8.450;2022-08-16T07:57:04;23.20;99.90
29413;DHT22;16389;50.126;8.450;2022-08-16T07:59:30;23.40;99.90
29413;DHT22;16389;50.126;8.450;2022-08-16T08:01:55;23.80;99.90
29413;DHT22;16389;50.126;8.450;2022-08-16T08:04:21;23.90;99.90
29413;DHT22;16389;50.126;8.450;2022-08-16T08:06:47;24.20;99.90
29413;DHT22;16389;50.126;8.450;2022-08-16T08:09:13;24.40;99.90
29413;DHT22;16389;50.126;8.450;2022-08-16T08:11:39;24.50;99.90
29413;DHT22;16389;50.126;8.450;2022-08-16T08:14:05;24.60;99.90
29413;DHT22;16389;50.126;8.450;2022-08-16T08:16:31;24.60;99.90
29413;DHT22;16389;50.126;8.450;2022-08-16T08:18:59;24.70;99.90
29413;DHT22;16389;50.126;8.450;2022-08-16T08:21:25;24.80;99.90
29413;DHT22;16389;50.126;8.450;2022-08-16T08:23:51;25.00;99.90
29413;DHT22;16389;50.126;8.450;2022-08-16T08:26:17;25.10;99.90
29413;DHT22;16389;50.126;8.450;2022-08-16T08:28:43;25.30;99.90
29413;DHT22;16389;50.126;8.450;2022-08-16T08:31:09;25.30;99.90
29413;DHT22;16389;50.126;8.450;2022-08-16T08:33:35;25.20;99.90
29413;DHT22;16389;50.126;8.450;2022-08-16T08:36:04;25.40;99.90
29413;DHT22;16389;50.126;8.450;2022-08-16T08:38:32;25.60;99.90
29413;DHT22;16389;50.126;8.450;2022-08-16T08:40:57;25.60;99.90
29413;DHT22;16389;50.126;8.450;2022-08-16T08:43:23;25.40;99.90
29413;DHT22;16389;50.126;8.450;2022-08-16T08:45:50;25.20;99.90
29413;DHT22;16389;50.126;8.450;2022-08-16T08:48:17;25.40;99.90
29413;DHT22;16389;50.126;8.450;2022-08-16T08:50:43;25.50;99.90
29413;DHT22;16389;50.126;8.450;2022-08-16T08:53:08;26.00;99.90
29413;DHT22;16389;50.126;8.450;2022-08-16T08:55:35;26.10;99.90
29413;DHT22;16389;50.126;8.450;2022-08-16T08:58:01;26.40;99.90
29413;DHT22;16389;50.126;8.450;2022-08-16T09:00:27;26.60;99.90
29413;DHT22;16389;50.126;8.450;2022-08-16T09:02:55;26.70;99.90
29413;DHT22;16389;50.126;8.450;2022-08-16T09:05:22;26.90;99.90
29413;DHT22;16389;50.126;8.450;2022-08-16T09:07:50;27.00;98.70
29413;DHT22;16389;50.126;8.450;2022-08-16T09:10:16;27.10;99.10
29413;DHT22;16389;50.126;8.450;2022-08-16T09:12:42;27.00;98.40
29413;DHT22;16389;50.126;8.450;2022-08-16T09:15:09;27.10;99.30
29413;DHT22;16389;50.126;8.450;2022-08-16T09:17:35;27.30;98.40
29413;DHT22;16389;50.126;8.450;2022-08-16T09:20:02;27.30;98.10
29413;DHT22;16389;50.126;8.450;2022-08-16T09:22:28;27.40;98.10
29413;DHT22;16389;50.126;8.450;2022-08-16T09:24:54;27.40;97.80
29413;DHT22;16389;50.126;8.450;2022-08-16T09:27:21;27.40;97.10
29413;DHT22;16389;50.126;8.450;2022-08-16T09:29:46;27.30;97.40
29413;DHT22;16389;50.126;8.450;2022-08-16T09:32:12;27.40;98.00
29413;DHT22;16389;50.126;8.450;2022-08-16T09:34:38;27.70;96.80
29413;DHT22;16389;50.126;8.450;2022-08-16T09:37:03;27.80;96.90
29413;DHT22;16389;50.126;8.450;2022-08-16T09:39:29;28.10;95.80
29413;DHT22;16389;50.126;8.450;2022-08-16T09:41:55;28.40;94.70
29413;DHT22;16389;50.126;8.450;2022-08-16T09:44:25;28.40;94.10
29413;DHT22;16389;50.126;8.450;2022-08-16T09:46:53;28.10;94.20
29413;DHT22;16389;50.126;8.450;2022-08-16T09:49:19;27.80;93.90
29413;DHT22;16389;50.126;8.450;2022-08-16T09:51:45;27.90;94.50
29413;DHT22;16389;50.126;8.450;2022-08-16T09:54:12;28.10;94.40
29413;DHT22;16389;50.126;8.450;2022-08-16T09:56:39;28.20;93.40
29413;DHT22;16389;50.126;8.450;2022-08-16T09:59:07;28.40;93.30
29413;DHT22;16389;50.126;8.450;2022-08-16T10:01:34;28.60;93.20
29413;DHT22;16389;50.126;8.450;2022-08-16T10:04:00;29.00;92.80
29413;DHT22;16389;50.126;8.450;2022-08-16T10:06:27;28.80;91.50
29413;DHT22;16389;50.126;8.450;2022-08-16T10:08:52;28.30;91.90
29413;DHT22;16389;50.126;8.450;2022-08-16T10:11:18;28.00;92.60
29413;DHT22;16389;50.126;8.450;2022-08-16T10:14:04;27.80;93.40
29413;DHT22;16389;50.126;8.450;2022-08-16T10:16:30;28.10;92.80
29413;DHT22;16389;50.126;8.450;2022-08-16T10:18:55;28.60;92.70
29413;DHT22;16389;50.126;8.450;2022-08-16T10:21:21;29.10;91.50
29413;DHT22;16389;50.126;8.450;2022-08-16T10:23:47;29.70;90.90
29413;DHT22;16389;50.126;8.450;2022-08-16T10:26:14;29.50;90.00
29413;DHT22;16389;50.126;8.450;2022-08-16T10:28:40;29.30;90.30
29413;DHT22;16389;50.126;8.450;2022-08-16T10:31:08;29.50;89.50
29413;DHT22;16389;50.126;8.450;2022-08-16T10:33:35;30.00;89.30
29413;DHT22;16389;50.126;8.450;2022-08-16T10:36:03;30.60;87.20
29413;DHT22;16389;50.126;8.450;2022-08-16T10:38:32;31.30;85.80
29413;DHT22;16389;50.126;8.450;2022-08-16T10:40:59;31.90;82.30
29413;DHT22;16389;50.126;8.450;2022-08-16T10:43:25;31.60;82.80
29413;DHT22;16389;50.126;8.450;2022-08-16T10:45:50;31.60;83.00
29413;DHT22;16389;50.126;8.450;2022-08-16T10:48:17;32.00;81.40
29413;DHT22;16389;50.126;8.450;2022-08-16T10:50:42;32.20;80.70
29413;DHT22;16389;50.126;8.450;2022-08-16T10:53:08;32.60;78.90
29413;DHT22;16389;50.126;8.450;2022-08-16T10:55:39;33.00;77.50
29413;DHT22;16389;50.126;8.450;2022-08-16T10:58:07;32.70;77.30
29413;DHT22;16389;50.126;8.450;2022-08-16T11:00:35;32.80;77.00
29413;DHT22;16389;50.126;8.450;2022-08-16T11:03:02;33.20;76.10
29413;DHT22;16389;50.126;8.450;2022-08-16T11:05:30;33.10;75.50
29413;DHT22;16389;50.126;8.450;2022-08-16T11:07:57;32.90;75.50
29413;DHT22;16389;50.126;8.450;2022-08-16T11:10:30;32.90;76.70
29413;DHT22;16389;50.126;8.450;2022-08-16T11:12:56;33.40;75.80
29413;DHT22;16389;50.126;8.450;2022-08-16T11:15:23;33.80;73.50
29413;DHT22;16389;50.126;8.450;2022-08-16T11:17:51;34.20;73.40
29413;DHT22;16389;50.126;8.450;2022-08-16T11:20:18;34.80;71.70
29413;DHT22;16389;50.126;8.450;2022-08-16T11:22:45;34.80;70.10
29413;DHT22;16389;50.126;8.450;2022-08-16T11:25:13;34.60;70.00
29413;DHT22;16389;50.126;8.450;2022-08-16T11:27:39;34.00;70.70
29413;DHT22;16389;50.126;8.450;2022-08-16T11:30:08;33.80;70.60
29413;DHT22;16389;50.126;8.450;2022-08-16T11:32:34;34.00;71.50
29413;DHT22;16389;50.126;8.450;2022-08-16T11:35:02;34.70;69.90
29413;DHT22;16389;50.126;8.450;2022-08-16T11:37:28;34.40;68.50
29413;DHT22;16389;50.126;8.450;2022-08-16T11:39:54;34.50;69.90
29413;DHT22;16389;50.126;8.450;2022-08-16T11:42:19;34.60;68.70
29413;DHT22;16389;50.126;8.450;2022-08-16T11:44:45;34.20;67.80
29413;DHT22;16389;50.126;8.450;2022-08-16T11:47:11;33.60;69.30
29413;DHT22;16389;50.126;8.450;2022-08-16T11:49:37;33.50;68.20
29413;DHT22;16389;50.126;8.450;2022-08-16T11:52:02;34.00;68.10
29413;DHT22;16389;50.126;8.450;2022-08-16T11:54:28;34.60;66.40
29413;DHT22;16389;50.126;8.450;2022-08-16T11:56:54;34.90;66.40
29413;DHT22;16389;50.126;8.450;2022-08-16T11:59:19;35.00;65.40
29413;DHT22;16389;50.126;8.450;2022-08-16T12:01:45;35.30;66.50
29413;DHT22;16389;50.126;8.450;2022-08-16T12:04:11;35.80;64.70
29413;DHT22;16389;50.126;8.450;2022-08-16T12:06:37;36.10;63.60
29413;DHT22;16389;50.126;8.450;2022-08-16T12:09:04;36.10;63.40
29413;DHT22;16389;50.126;8.450;2022-08-16T12:11:30;36.10;61.10
29413;DHT22;16389;50.126;8.450;2022-08-16T12:13:58;36.20;61.10
29413;DHT22;16389;50.126;8.450;2022-08-16T12:16:23;36.70;60.10
29413;DHT22;16389;50.126;8.450;2022-08-16T12:18:49;36.80;59.00
29413;DHT22;16389;50.126;8.450;2022-08-16T12:21:15;37.30;59.70
29413;DHT22;16389;50.126;8.450;2022-08-16T12:23:41;37.10;57.90
29413;DHT22;16389;50.126;8.450;2022-08-16T12:26:07;37.30;58.40
29413;DHT22;16389;50.126;8.450;2022-08-16T12:28:33;37.70;57.90
29413;DHT22;16389;50.126;8.450;2022-08-16T12:30:58;37.50;57.60
29413;DHT22;16389;50.126;8.450;2022-08-16T12:33:24;37.50;57.60
29413;DHT22;16389;50.126;8.450;2022-08-16T12:35:50;37.80;56.90
29413;DHT22;16389;50.126;8.450;2022-08-16T12:38:16;37.70;56.50
29413;DHT22;16389;50.126;8.450;2022-08-16T12:40:44;37.70;56.50
29413;DHT22;16389;50.126;8.450;2022-08-16T12:43:12;37.90;56.50
29413;DHT22;16389;50.126;8.450;2022-08-16T12:45:42;38.30;56.20
29413;DHT22;16389;50.126;8.450;2022-08-16T12:48:12;37.90;55.80
29413;DHT22;16389;50.126;8.450;2022-08-16T12:50:56;37.90;54.70
29413;DHT22;16389;50.126;8.450;2022-08-16T12:53:22;37.80;53.10
29413;DHT22;16389;50.126;8.450;2022-08-16T12:55:48;38.00;52.60
29413;DHT22;16389;50.126;8.450;2022-08-16T12:58:14;38.00;51.60
29413;DHT22;16389;50.126;8.450;2022-08-16T13:00:41;38.10;52.80
29413;DHT22;16389;50.126;8.450;2022-08-16T13:03:07;37.50;52.40
29413;DHT22;16389;50.126;8.450;2022-08-16T13:05:37;37.60;53.50
29413;DHT22;16389;50.126;8.450;2022-08-16T13:08:08;37.20;53.40
29413;DHT22;16389;50.126;8.450;2022-08-16T13:10:34;37.00;54.30
29413;DHT22;16389;50.126;8.450;2022-08-16T13:13:00;36.40;54.00
29413;DHT22;16389;50.126;8.450;2022-08-16T13:15:27;36.00;55.30
29413;DHT22;16389;50.126;8.450;2022-08-16T13:17:53;35.80;55.30
29413;DHT22;16389;50.126;8.450;2022-08-16T13:20:21;35.70;55.70
29413;DHT22;16389;50.126;8.450;2022-08-16T13:22:56;35.30;55.40
29413;DHT22;16389;50.126;8.450;2022-08-16T13:25:24;34.90;55.50
29413;DHT22;16389;50.126;8.450;2022-08-16T13:27:51;34.50;56.00
29413;DHT22;16389;50.126;8.450;2022-08-16T13:30:17;34.20;57.00
29413;DHT22;16389;50.126;8.450;2022-08-16T13:32:43;33.90;57.70
29413;DHT22;16389;50.126;8.450;2022-08-16T13:35:09;33.60;58.70
29413;DHT22;16389;50.126;8.450;2022-08-16T13:37:34;33.50;59.40
29413;DHT22;16389;50.126;8.450;2022-08-16T13:40:00;33.40;59.20
29413;DHT22;16389;50.126;8.450;2022-08-16T13:42:27;33.10;58.60
29413;DHT22;16389;50.126;8.450;2022-08-16T13:44:53;33.10;59.20
29413;DHT22;16389;50.126;8.450;2022-08-16T13:47:19;33.20;58.40
29413;DHT22;16389;50.126;8.450;2022-08-16T13:49:44;33.30;58.00
29413;DHT22;16389;50.126;8.450;2022-08-16T13:52:11;33.30;58.50
29413;DHT22;16389;50.126;8.450;2022-08-16T13:54:37;33.10;58.40
29413;DHT22;16389;50.126;8.450;2022-08-16T13:57:03;32.90;58.90
29413;DHT22;16389;50.126;8.450;2022-08-16T13:59:28;32.80;58.40
29413;DHT22;16389;50.126;8.450;2022-08-16T14:01:55;32.70;59.00
29413;DHT22;16389;50.126;8.450;2022-08-16T14:04:30;32.60;58.20
29413;DHT22;16389;50.126;8.450;2022-08-16T14:06:57;32.50;58.30
29413;DHT22;16389;50.126;8.450;2022-08-16T14:09:23;32.40;58.20
29413;DHT22;16389;50.126;8.450;2022-08-16T14:11:49;32.20;58.40
29413;DHT22;16389;50.126;8.450;2022-08-16T14:14:15;32.10;59.50
29413;DHT22;16389;50.126;8.450;2022-08-16T14:16:41;32.10;59.20
29413;DHT22;16389;50.126;8.450;2022-08-16T14:19:07;32.10;58.90
29413;DHT22;16389;50.126;8.450;2022-08-16T14:21:33;32.10;59.30
29413;DHT22;16389;50.126;8.450;2022-08-16T14:23:59;32.10;59.40
29413;DHT22;16389;50.126;8.450;2022-08-16T14:26:26;32.10;59.70
29413;DHT22;16389;50.126;8.450;2022-08-16T14:28:52;32.10;60.70
29413;DHT22;16389;50.126;8.450;2022-08-16T14:31:18;32.00;59.30
29413;DHT22;16389;50.126;8.450;2022-08-16T14:33:44;32.00;59.50
29413;DHT22;16389;50.126;8.450;2022-08-16T14:36:10;31.90;59.10
29413;DHT22;16389;50.126;8.450;2022-08-16T14:38:36;31.90;59.70
29413;DHT22;16389;50.126;8.450;2022-08-16T14:41:02;31.90;59.70
29413;DHT22;16389;50.126;8.450;2022-08-16T14:43:27;31.90;59.90
29413;DHT22;16389;50.126;8.450;2022-08-16T14:45:53;31.80;59.40
29413;DHT22;16389;50.126;8.450;2022-08-16T14:48:20;31.70;60.10
29413;DHT22;16389;50.126;8.450;2022-08-16T14:50:45;31.80;60.80
29413;DHT22;16389;50.126;8.450;2022-08-16T14:53:11;31.80;59.30
29413;DHT22;16389;50.126;8.450;2022-08-16T14:55:37;31.90;59.30
29413;DHT22;16389;50.126;8.450;2022-08-16T14:58:04;31.70;59.60
29413;DHT22;16389;50.126;8.450;2022-08-16T15:00:31;31.60;59.60
29413;DHT22;16389;50.126;8.450;2022-08-16T15:02:59;31.50;59.80
29413;DHT22;16389;50.126;8.450;2022-08-16T15:05:26;31.50;60.50
29413;DHT22;16389;50.126;8.450;2022-08-16T15:07:53;31.40;60.00
29413;DHT22;16389;50.126;8.450;2022-08-16T15:10:20;31.40;60.50
29413;DHT22;16389;50.126;8.450;2022-08-16T15:12:47;31.40;61.30
29413;DHT22;16389;50.126;8.450;2022-08-16T15:15:16;31.40;61.00
29413;DHT22;16389;50.126;8.450;2022-08-16T15:17:45;31.30;61.50
29413;DHT22;16389;50.126;8.450;2022-08-16T15:20:11;31.30;61.50
29413;DHT22;16389;50.126;8.450;2022-08-16T15:22:43;31.30;61.20
29413;DHT22;16389;50.126;8.450;2022-08-16T15:25:20;31.30;61.00
29413;DHT22;16389;50.126;8.450;2022-08-16T15:27:46;31.20;60.40
29413;DHT22;16389;50.126;8.450;2022-08-16T15:30:20;31.10;60.30
29413;DHT22;16389;50.126;8.450;2022-08-16T15:32:47;31.20;59.20